sensor_id;sensor_type;location;lat;lon;timestamp;pressure;altitude;pressure_sealevel;temperature;humidity
70411;BME280;57832;46.038;11.398;2023-03-18T00:01:53;97102.88;;;2.09;100.00
70411;BME280;57832;46.038;11.398;2023-03-18T00:04:20;97100.53;;;2.36;100.00
70411;BME280;57832;46.038;11.398;2023-03-18T00:06:46;97094.75;;;2.55;100.00
70411;BME280;57832;46.038;11.398;2023-03-18T00:09:12;97104.94;;;2.35;100.00
70411;BME280;57832;46.038;11.398;2023-03-18T00:11:38;97107.44;;;2.28;100.00
70411;BME280;57832;46.038;11.398;2023-03-18T00:14:05;97107.13;;;2.16;100.00
70411;BME280;57832;46.038;11.398;2023-03-18T00:16:33;97107.31;;;2.37;100.00
70411;BME280;57832;46.038;11.398;2023-03-18T00:19:00;97103.06;;;1.71;100.00
70411;BME280;57832;46.038;11.398;2023-03-18T00:21:27;97105.78;;;1.99;100.00
70411;BME280;57832;46.038;11.398;2023-03-18T00:23:54;97111.47;;;2.31;100.00
70411;BME280;57832;46.038;11.398;2023-03-18T00:26:24;97109.47;;;2.11;100.00
70411;BME280;57832;46.038;11.398;2023-03-18T00:28:52;97100.91;;;1.74;100.00
70411;BME280;57832;46.038;11.398;2023-03-18T00:31:19;97099.22;;;1.66;100.00
70411;BME280;57832;46.038;11.398;2023-03-18T00:33:45;97105.78;;;1.99;100.00
70411;BME280;57832;46.038;11.398;2023-03-18T00:36:14;97103.84;;;2.08;100.00
70411;BME280;57832;46.038;11.398;2023-03-18T00:38:42;97094.69;;;1.69;100.00
70411;BME280;57832;46.038;11.398;2023-03-18T00:41:09;97107.06;;;1.88;100.00
70411;BME280;57832;46.038;11.398;2023-03-18T00:43:46;97099.09;;;1.90;100.00
70411;BME280;57832;46.038;11.398;2023-03-18T00:46:23;97104.94;;;1.62;100.00
70411;BME280;57832;46.038;11.398;2023-03-18T00:48:53;97097.91;;;1.71;100.00
70411;BME280;57832;46.038;11.398;2023-03-18T00:51:20;97096.00;;;1.79;100.00
70411;BME280;57832;46.038;11.398;2023-03-18T00:53:49;97089.25;;;1.63;100.00
70411;BME280;57832;46.038;11.398;2023-03-18T00:56:18;97099.69;;;1.55;100.00
70411;BME280;57832;46.038;11.398;2023-03-18T00:58:45;97093.44;;;1.64;100.00
70411;BME280;57832;46.038;11.398;2023-03-18T01:01:11;97096.56;;;1.60;100.00
70411;BME280;57832;46.038;11.398;2023-03-18T01:03:38;97093.72;;;1.40;100.00
70411;BME280;57832;46.038;11.398;2023-03-18T01:06:07;97103.38;;;1.46;100.00
70411;BME280;57832;46.038;11.398;2023-03-18T01:08:34;97095.31;;;1.56;100.00
70411;BME280;57832;46.038;11.398;2023-03-18T01:11:00;97094.72;;;1.54;100.00
70411;BME280;57832;46.038;11.398;2023-03-18T01:13:27;97087.47;;;1.49;100.00
70411;BME280;57832;46.038;11.398;2023-03-18T01:15:54;97084.09;;;1.48;100.00
70411;BME280;57832;46.038;11.398;2023-03-18T01:18:21;97082.41;;;1.41;100.00
70411;BME280;57832;46.038;11.398;2023-03-18T01:20:46;97075.13;;;1.29;100.00
70411;BME280;57832;46.038;11.398;2023-03-18T01:23:13;97078.03;;;1.41;100.00
70411;BME280;57832;46.038;11.398;2023-03-18T01:25:38;97077.00;;;1.21;100.00
70411;BME280;57832;46.038;11.398;2023-03-18T01:28:04;97075.38;;;1.20;100.00
70411;BME280;57832;46.038;11.398;2023-03-18T01:30:30;97067.13;;;1.24;100.00
70411;BME280;57832;46.038;11.398;2023-03-18T01:32:56;97069.34;;;1.12;100.00
70411;BME280;57832;46.038;11.398;2023-03-18T01:35:23;97073.34;;;1.30;100.00
70411;BME280;57832;46.038;11.398;2023-03-18T01:37:50;97067.09;;;1.39;100.00
70411;BME280;57832;46.038;11.398;2023-03-18T01:40:18;97070.31;;;1.26;100.00
70411;BME280;57832;46.038;11.398;2023-03-18T01:42:51;97063.19;;;1.13;100.00
70411;BME280;57832;46.038;11.398;2023-03-18T01:47:48;97058.00;;;0.98;100.00
70411;BME280;57832;46.038;11.398;2023-03-18T01:50:30;97057.03;;;0.85;100.00
70411;BME280;57832;46.038;11.398;2023-03-18T01:53:06;97054.19;;;1.09;100.00
70411;BME280;57832;46.038;11.398;2023-03-18T01:55:33;97048.50;;;0.84;100.00
70411;BME280;57832;46.038;11.398;2023-03-18T01:58:03;97044.13;;;0.99;100.00
70411;BME280;57832;46.038;11.398;2023-03-18T02:00:32;97045.91;;;1.14;100.00
70411;BME280;57832;46.038;11.398;2023-03-18T02:02:58;97050.59;;;1.25;100.00
70411;BME280;57832;46.038;11.398;2023-03-18T02:05:25;97044.47;;;1.11;100.00
70411;BME280;57832;46.038;11.398;2023-03-18T02:07:51;97043.34;;;0.99;100.00
70411;BME280;57832;46.038;11.398;2023-03-18T02:12:47;97036.84;;;0.88;100.00
70411;BME280;57832;46.038;11.398;2023-03-18T02:15:17;97034.84;;;0.90;100.00
70411;BME280;57832;46.038;11.398;2023-03-18T02:17:48;97033.06;;;0.76;100.00
70411;BME280;57832;46.038;11.398;2023-03-18T02:20:32;97027.81;;;0.69;100.00
70411;BME280;57832;46.038;11.398;2023-03-18T02:29:06;97033.06;;;0.76;100.00
70411;BME280;57832;46.038;11.398;2023-03-18T02:31:35;97028.91;;;0.37;100.00
70411;BME280;57832;46.038;11.398;2023-03-18T02:34:01;97022.22;;;0.65;100.00
70411;BME280;57832;46.038;11.398;2023-03-18T02:36:28;97018.81;;;0.80;100.00
70411;BME280;57832;46.038;11.398;2023-03-18T02:38:55;97021.66;;;0.85;100.00
70411;BME280;57832;46.038;11.398;2023-03-18T02:41:26;97019.00;;;0.93;100.00
70411;BME280;57832;46.038;11.398;2023-03-18T02:43:52;97026.31;;;0.75;100.00
70411;BME280;57832;46.038;11.398;2023-03-18T02:48:53;97023.28;;;0.56;100.00
70411;BME280;57832;46.038;11.398;2023-03-18T02:51:19;97031.25;;;0.46;100.00
70411;BME280;57832;46.038;11.398;2023-03-18T02:53:46;97024.41;;;0.54;100.00
70411;BME280;57832;46.038;11.398;2023-03-18T02:56:12;97027.72;;;0.62;100.00
70411;BME280;57832;46.038;11.398;2023-03-18T02:58:38;97019.88;;;0.71;100.00
70411;BME280;57832;46.038;11.398;2023-03-18T03:01:04;97022.53;;;0.47;100.00
70411;BME280;57832;46.038;11.398;2023-03-18T03:03:30;97022.13;;;0.59;100.00
70411;BME280;57832;46.038;11.398;2023-03-18T03:05:56;97019.44;;;0.52;100.00
70411;BME280;57832;46.038;11.398;2023-03-18T03:08:22;97020.50;;;0.58;100.00
70411;BME280;57832;46.038;11.398;2023-03-18T03:10:48;97014.19;;;0.45;100.00
70411;BME280;57832;46.038;11.398;2023-03-18T03:13:15;97017.81;;;0.36;100.00
70411;BME280;57832;46.038;11.398;2023-03-18T03:15:41;97019.94;;;0.32;100.00
70411;BME280;57832;46.038;11.398;2023-03-18T03:18:07;97020.28;;;0.29;100.00
70411;BME280;57832;46.038;11.398;2023-03-18T03:20:34;97023.66;;;0.30;100.00
70411;BME280;57832;46.038;11.398;2023-03-18T03:23:06;97023.59;;;0.53;100.00
70411;BME280;57832;46.038;11.398;2023-03-18T03:25:32;97030.00;;;0.57;100.00
70411;BME280;57832;46.038;11.398;2023-03-18T03:27:58;97026.84;;;0.32;100.00
70411;BME280;57832;46.038;11.398;2023-03-18T03:30:24;97035.44;;;0.47;100.00
70411;BME280;57832;46.038;11.398;2023-03-18T03:32:50;97030.56;;;0.53;100.00
70411;BME280;57832;46.038;11.398;2023-03-18T03:35:17;97031.06;;;0.48;100.00
70411;BME280;57832;46.038;11.398;2023-03-18T03:37:43;97031.91;;;0.63;100.00
70411;BME280;57832;46.038;11.398;2023-03-18T03:40:11;97038.03;;;0.62;100.00
70411;BME280;57832;46.038;11.398;2023-03-18T03:42:37;97028.94;;;0.52;100.00
70411;BME280;57832;46.038;11.398;2023-03-18T03:45:04;97030.47;;;0.61;100.00
70411;BME280;57832;46.038;11.398;2023-03-18T03:47:30;97027.78;;;0.54;100.00
70411;BME280;57832;46.038;11.398;2023-03-18T03:49:57;97026.38;;;0.66;100.00
70411;BME280;57832;46.038;11.398;2023-03-18T03:52:22;97032.09;;;0.62;100.00
70411;BME280;57832;46.038;11.398;2023-03-18T03:54:48;97034.28;;;0.50;100.00
70411;BME280;57832;46.038;11.398;2023-03-18T03:57:15;97027.28;;;0.74;100.00
70411;BME280;57832;46.038;11.398;2023-03-18T03:59:41;97019.59;;;0.50;100.00
70411;BME280;57832;46.038;11.398;2023-03-18T04:02:06;97027.88;;;0.46;100.00
70411;BME280;57832;46.038;11.398;2023-03-18T04:04:33;97021.56;;;0.48;100.00
70411;BME280;57832;46.038;11.398;2023-03-18T04:06:59;97022.91;;;0.59;100.00
70411;BME280;57832;46.038;11.398;2023-03-18T04:09:25;97029.47;;;0.47;100.00
70411;BME280;57832;46.038;11.398;2023-03-18T04:11:51;97022.72;;;0.61;100.00
70411;BME280;57832;46.038;11.398;2023-03-18T04:14:16;97026.19;;;0.53;100.00
70411;BME280;57832;46.038;11.398;2023-03-18T04:16:42;97027.63;;;0.56;100.00
70411;BME280;57832;46.038;11.398;2023-03-18T04:19:09;97025.28;;;0.46;100.00
70411;BME280;57832;46.038;11.398;2023-03-18T04:21:34;97030.94;;;0.64;100.00
70411;BME280;57832;46.038;11.398;2023-03-18T04:24:01;97030.28;;;0.47;100.00
70411;BME280;57832;46.038;11.398;2023-03-18T04:26:28;97030.53;;;0.38;100.00
70411;BME280;57832;46.038;11.398;2023-03-18T04:28:55;97026.47;;;0.58;100.00
70411;BME280;57832;46.038;11.398;2023-03-18T04:31:21;97029.75;;;0.52;100.00
70411;BME280;57832;46.038;11.398;2023-03-18T04:33:47;97025.56;;;0.51;100.00
70411;BME280;57832;46.038;11.398;2023-03-18T04:36:13;97024.72;;;0.74;100.00
70411;BME280;57832;46.038;11.398;2023-03-18T04:38:38;97023.78;;;0.66;100.00
70411;BME280;57832;46.038;11.398;2023-03-18T04:41:04;97022.16;;;0.50;100.00
70411;BME280;57832;46.038;11.398;2023-03-18T04:43:31;97023.72;;;0.75;100.00
70411;BME280;57832;46.038;11.398;2023-03-18T04:45:56;97022.28;;;0.57;100.00
70411;BME280;57832;46.038;11.398;2023-03-18T04:48:22;97018.91;;;0.57;100.00
70411;BME280;57832;46.038;11.398;2023-03-18T04:50:49;97020.69;;;0.56;100.00
70411;BME280;57832;46.038;11.398;2023-03-18T04:53:15;97022.31;;;0.72;100.00
70411;BME280;57832;46.038;11.398;2023-03-18T04:55:41;97019.69;;;0.57;100.00
70411;BME280;57832;46.038;11.398;2023-03-18T04:58:07;97025.31;;;0.61;100.00
70411;BME280;57832;46.038;11.398;2023-03-18T05:00:33;97017.94;;;0.73;100.00
70411;BME280;57832;46.038;11.398;2023-03-18T05:02:59;97019.44;;;0.67;100.00
70411;BME280;57832;46.038;11.398;2023-03-18T05:05:26;97022.72;;;0.61;100.00
70411;BME280;57832;46.038;11.398;2023-03-18T05:07:51;97021.13;;;0.60;100.00
70411;BME280;57832;46.038;11.398;2023-03-18T05:10:17;97023.63;;;0.68;100.00
70411;BME280;57832;46.038;11.398;2023-03-18T05:12:43;97023.09;;;0.73;100.00
70411;BME280;57832;46.038;11.398;2023-03-18T05:15:09;97017.84;;;0.81;100.00
70411;BME280;57832;46.038;11.398;2023-03-18T05:17:35;97015.63;;;0.78;100.00
70411;BME280;57832;46.038;11.398;2023-03-18T05:20:01;97012.75;;;0.58;100.00
70411;BME280;57832;46.038;11.398;2023-03-18T05:22:28;97010.28;;;0.64;100.00
70411;BME280;57832;46.038;11.398;2023-03-18T05:24:54;97011.50;;;0.39;100.00
70411;BME280;57832;46.038;11.398;2023-03-18T05:27:20;97019.00;;;0.78;100.00
70411;BME280;57832;46.038;11.398;2023-03-18T05:29:46;97013.75;;;1.16;100.00
70411;BME280;57832;46.038;11.398;2023-03-18T05:32:12;97015.97;;;1.20;100.00
70411;BME280;57832;46.038;11.398;2023-03-18T05:34:39;97019.84;;;1.30;100.00
70411;BME280;57832;46.038;11.398;2023-03-18T05:37:07;97017.38;;;1.22;100.00
70411;BME280;57832;46.038;11.398;2023-03-18T05:39:34;97008.41;;;1.03;100.00
70411;BME280;57832;46.038;11.398;2023-03-18T05:42:00;97008.50;;;1.10;100.00
70411;BME280;57832;46.038;11.398;2023-03-18T05:44:26;97007.28;;;1.64;100.00
70411;BME280;57832;46.038;11.398;2023-03-18T05:46:53;97011.31;;;1.30;100.00
70411;BME280;57832;46.038;11.398;2023-03-18T05:49:19;97009.84;;;1.42;100.00
70411;BME280;57832;46.038;11.398;2023-03-18T05:51:45;97010.41;;;1.38;100.00
70411;BME280;57832;46.038;11.398;2023-03-18T05:54:12;97005.34;;;1.14;100.00
70411;BME280;57832;46.038;11.398;2023-03-18T05:56:38;97014.38;;;1.04;100.00
70411;BME280;57832;46.038;11.398;2023-03-18T05:59:04;97018.09;;;1.31;100.00
70411;BME280;57832;46.038;11.398;2023-03-18T06:01:30;97017.59;;;1.42;100.00
70411;BME280;57832;46.038;11.398;2023-03-18T06:03:57;97017.63;;;1.64;100.00
70411;BME280;57832;46.038;11.398;2023-03-18T06:06:24;97011.81;;;1.77;100.00
70411;BME280;57832;46.038;11.398;2023-03-18T06:08:50;97009.66;;;1.80;100.00
70411;BME280;57832;46.038;11.398;2023-03-18T06:11:16;97017.81;;;1.62;100.00
70411;BME280;57832;46.038;11.398;2023-03-18T06:13:42;97020.94;;;1.73;100.00
70411;BME280;57832;46.038;11.398;2023-03-18T06:16:10;97029.56;;;1.43;100.00
70411;BME280;57832;46.038;11.398;2023-03-18T06:18:36;97032.69;;;1.39;100.00
70411;BME280;57832;46.038;11.398;2023-03-18T06:21:02;97029.84;;;1.33;100.00
70411;BME280;57832;46.038;11.398;2023-03-18T06:23:28;97039.31;;;1.11;100.00
70411;BME280;57832;46.038;11.398;2023-03-18T06:25:54;97038.13;;;1.29;100.00
70411;BME280;57832;46.038;11.398;2023-03-18T06:28:19;97037.38;;;1.50;100.00
70411;BME280;57832;46.038;11.398;2023-03-18T06:30:45;97049.06;;;1.46;100.00
70411;BME280;57832;46.038;11.398;2023-03-18T06:33:11;97049.13;;;1.67;100.00
70411;BME280;57832;46.038;11.398;2023-03-18T06:35:36;97048.06;;;1.62;100.00
70411;BME280;57832;46.038;11.398;2023-03-18T06:38:02;97051.34;;;1.71;100.00
70411;BME280;57832;46.038;11.398;2023-03-18T06:40:28;97049.03;;;1.61;100.00
70411;BME280;57832;46.038;11.398;2023-03-18T06:42:54;97050.75;;;1.90;100.00
70411;BME280;57832;46.038;11.398;2023-03-18T06:45:20;97048.47;;;2.02;100.00
70411;BME280;57832;46.038;11.398;2023-03-18T06:47:47;97052.16;;;2.14;100.00
70411;BME280;57832;46.038;11.398;2023-03-18T06:50:14;97048.22;;;2.18;100.00
70411;BME280;57832;46.038;11.398;2023-03-18T06:52:40;97043.84;;;2.19;100.00
70411;BME280;57832;46.038;11.398;2023-03-18T06:55:06;97043.09;;;2.25;100.00
70411;BME280;57832;46.038;11.398;2023-03-18T06:57:32;97040.56;;;2.54;100.00
70411;BME280;57832;46.038;11.398;2023-03-18T06:59:58;97039.34;;;2.84;100.00
70411;BME280;57832;46.038;11.398;2023-03-18T07:02:25;97037.81;;;2.97;100.00
70411;BME280;57832;46.038;11.398;2023-03-18T07:04:51;97033.50;;;2.76;100.00
70411;BME280;57832;46.038;11.398;2023-03-18T07:07:17;97032.28;;;2.72;100.00
70411;BME280;57832;46.038;11.398;2023-03-18T07:09:43;97041.72;;;3.21;100.00
70411;BME280;57832;46.038;11.398;2023-03-18T07:12:11;97041.47;;;3.44;100.00
70411;BME280;57832;46.038;11.398;2023-03-18T07:14:38;97044.84;;;3.51;100.00
70411;BME280;57832;46.038;11.398;2023-03-18T07:17:04;97052.03;;;2.73;100.00
70411;BME280;57832;46.038;11.398;2023-03-18T07:19:29;97043.16;;;2.89;100.00
70411;BME280;57832;46.038;11.398;2023-03-18T07:21:57;97044.19;;;2.94;100.00
70411;BME280;57832;46.038;11.398;2023-03-18T07:24:22;97045.47;;;3.12;100.00
70411;BME280;57832;46.038;11.398;2023-03-18T07:26:48;97042.38;;;3.30;100.00
70411;BME280;57832;46.038;11.398;2023-03-18T07:29:15;97046.63;;;3.38;100.00
70411;BME280;57832;46.038;11.398;2023-03-18T07:31:41;97046.88;;;3.56;100.00
70411;BME280;57832;46.038;11.398;2023-03-18T07:34:07;97052.34;;;3.75;100.00
70411;BME280;57832;46.038;11.398;2023-03-18T07:36:33;97048.81;;;4.16;100.00
70411;BME280;57832;46.038;11.398;2023-03-18T07:39:02;97040.84;;;4.38;100.00
70411;BME280;57832;46.038;11.398;2023-03-18T07:41:28;97046.81;;;4.58;100.00
70411;BME280;57832;46.038;11.398;2023-03-18T07:43:53;97043.44;;;4.58;100.00
70411;BME280;57832;46.038;11.398;2023-03-18T07:46:20;97047.00;;;4.77;100.00
70411;BME280;57832;46.038;11.398;2023-03-18T07:48:46;97044.31;;;5.24;100.00
70411;BME280;57832;46.038;11.398;2023-03-18T07:51:12;97047.41;;;5.52;100.00
70411;BME280;57832;46.038;11.398;2023-03-18T07:53:39;97041.63;;;4.11;100.00
70411;BME280;57832;46.038;11.398;2023-03-18T07:56:05;97043.44;;;4.44;100.00
70411;BME280;57832;46.038;11.398;2023-03-18T07:58:32;97041.56;;;5.12;100.00
70411;BME280;57832;46.038;11.398;2023-03-18T08:00:59;97046.00;;;5.95;100.00
70411;BME280;57832;46.038;11.398;2023-03-18T08:03:25;97040.06;;;6.20;100.00
70411;BME280;57832;46.038;11.398;2023-03-18T08:05:50;97034.44;;;6.74;100.00
70411;BME280;57832;46.038;11.398;2023-03-18T08:08:16;97030.94;;;7.54;100.00
70411;BME280;57832;46.038;11.398;2023-03-18T08:10:42;97029.22;;;8.75;100.00
70411;BME280;57832;46.038;11.398;2023-03-18T08:13:07;97029.19;;;9.10;100.00
70411;BME280;57832;46.038;11.398;2023-03-18T08:15:33;97026.19;;;9.71;100.00
70411;BME280;57832;46.038;11.398;2023-03-18T08:17:58;97031.28;;;10.24;100.00
70411;BME280;57832;46.038;11.398;2023-03-18T08:20:24;97030.69;;;12.60;100.00
70411;BME280;57832;46.038;11.398;2023-03-18T08:22:51;97028.13;;;12.70;100.00
70411;BME280;57832;46.038;11.398;2023-03-18T08:25:17;97031.38;;;11.41;100.00
70411;BME280;57832;46.038;11.398;2023-03-18T08:27:42;97025.78;;;10.37;100.00
70411;BME280;57832;46.038;11.398;2023-03-18T08:30:09;97023.78;;;10.61;100.00
70411;BME280;57832;46.038;11.398;2023-03-18T08:32:34;97026.56;;;10.09;100.00
70411;BME280;57832;46.038;11.398;2023-03-18T08:35:00;97021.13;;;10.78;100.00
70411;BME280;57832;46.038;11.398;2023-03-18T08:37:27;97027.72;;;11.20;100.00
70411;BME280;57832;46.038;11.398;2023-03-18T08:39:53;97029.94;;;10.89;100.00
70411;BME280;57832;46.038;11.398;2023-03-18T08:42:19;97023.66;;;13.19;100.00
70411;BME280;57832;46.038;11.398;2023-03-18T08:44:45;97031.59;;;11.62;100.00
70411;BME280;57832;46.038;11.398;2023-03-18T08:47:10;97033.69;;;10.76;100.00
70411;BME280;57832;46.038;11.398;2023-03-18T08:49:36;97036.31;;;10.42;100.00
70411;BME280;57832;46.038;11.398;2023-03-18T08:52:02;97033.00;;;11.03;100.00
70411;BME280;57832;46.038;11.398;2023-03-18T08:54:28;97031.06;;;12.09;100.00
70411;BME280;57832;46.038;11.398;2023-03-18T08:56:54;97030.56;;;11.90;100.00
70411;BME280;57832;46.038;11.398;2023-03-18T08:59:21;97044.22;;;12.42;100.00
70411;BME280;57832;46.038;11.398;2023-03-18T09:01:46;97027.25;;;15.86;92.60
70411;BME280;57832;46.038;11.398;2023-03-18T09:04:15;97030.19;;;15.09;74.39
70411;BME280;57832;46.038;11.398;2023-03-18T09:06:41;97028.09;;;13.77;100.00
70411;BME280;57832;46.038;11.398;2023-03-18T09:09:07;97026.00;;;13.84;100.00
70411;BME280;57832;46.038;11.398;2023-03-18T09:11:33;97023.38;;;12.73;100.00
70411;BME280;57832;46.038;11.398;2023-03-18T09:13:59;97018.06;;;13.68;100.00
70411;BME280;57832;46.038;11.398;2023-03-18T09:16:25;97020.78;;;14.25;96.52
70411;BME280;57832;46.038;11.398;2023-03-18T09:18:51;97017.00;;;15.09;81.13
70411;BME280;57832;46.038;11.398;2023-03-18T09:21:17;97020.25;;;14.23;83.61
70411;BME280;57832;46.038;11.398;2023-03-18T09:23:43;97013.03;;;15.11;79.41
70411;BME280;57832;46.038;11.398;2023-03-18T09:26:10;97010.06;;;15.33;74.93
70411;BME280;57832;46.038;11.398;2023-03-18T09:28:35;96998.31;;;14.79;78.11
70411;BME280;57832;46.038;11.398;2023-03-18T09:31:01;97005.19;;;14.29;80.29
70411;BME280;57832;46.038;11.398;2023-03-18T09:33:28;96992.00;;;14.75;74.62
70411;BME280;57832;46.038;11.398;2023-03-18T09:35:54;96994.66;;;14.49;89.64
70411;BME280;57832;46.038;11.398;2023-03-18T09:38:20;96987.47;;;14.96;84.03
70411;BME280;57832;46.038;11.398;2023-03-18T09:46:26;96980.25;;;16.12;61.16
70411;BME280;57832;46.038;11.398;2023-03-18T09:52:05;96974.31;;;15.91;60.04
70411;BME280;57832;46.038;11.398;2023-03-18T09:54:36;96970.13;;;14.49;78.68
70411;BME280;57832;46.038;11.398;2023-03-18T09:57:13;96976.31;;;16.68;61.28
70411;BME280;57832;46.038;11.398;2023-03-18T09:59:44;96967.03;;;16.42;61.23
70411;BME280;57832;46.038;11.398;2023-03-18T10:02:35;96970.03;;;16.35;55.39
70411;BME280;57832;46.038;11.398;2023-03-18T10:05:13;96969.63;;;15.83;59.55
70411;BME280;57832;46.038;11.398;2023-03-18T10:07:42;96959.31;;;16.75;57.90
70411;BME280;57832;46.038;11.398;2023-03-18T10:10:37;96959.91;;;16.96;58.49
70411;BME280;57832;46.038;11.398;2023-03-18T10:13:27;96954.19;;;17.51;50.63
70411;BME280;57832;46.038;11.398;2023-03-18T10:15:56;96951.97;;;17.58;48.47
70411;BME280;57832;46.038;11.398;2023-03-18T10:18:30;96949.13;;;17.11;47.14
70411;BME280;57832;46.038;11.398;2023-03-18T10:24:22;96946.91;;;18.75;46.19
70411;BME280;57832;46.038;11.398;2023-03-18T10:27:13;96954.13;;;18.74;42.89
70411;BME280;57832;46.038;11.398;2023-03-18T10:29:59;96951.56;;;18.22;43.79
70411;BME280;57832;46.038;11.398;2023-03-18T10:38:13;96936.50;;;18.17;43.61
70411;BME280;57832;46.038;11.398;2023-03-18T10:40:37;96928.63;;;18.73;45.41
70411;BME280;57832;46.038;11.398;2023-03-18T10:43:13;96928.94;;;17.72;43.50
70411;BME280;57832;46.038;11.398;2023-03-18T10:45:42;96929.38;;;17.42;42.03
70411;BME280;57832;46.038;11.398;2023-03-18T10:48:31;96923.50;;;17.83;42.98
70411;BME280;57832;46.038;11.398;2023-03-18T10:54:08;96915.81;;;19.17;42.25
70411;BME280;57832;46.038;11.398;2023-03-18T10:56:35;96909.84;;;19.48;39.20
70411;BME280;57832;46.038;11.398;2023-03-18T10:59:04;96904.63;;;19.79;40.08
70411;BME280;57832;46.038;11.398;2023-03-18T11:01:30;96899.81;;;19.45;40.17
70411;BME280;57832;46.038;11.398;2023-03-18T11:04:02;96897.19;;;19.90;39.71
70411;BME280;57832;46.038;11.398;2023-03-18T11:06:53;96901.25;;;20.19;39.10
70411;BME280;57832;46.038;11.398;2023-03-18T11:09:22;96892.69;;;19.54;38.00
70411;BME280;57832;46.038;11.398;2023-03-18T11:11:55;96884.03;;;19.71;38.45
70411;BME280;57832;46.038;11.398;2023-03-18T11:14:21;96879.69;;;20.29;38.70
70411;BME280;57832;46.038;11.398;2023-03-18T11:17:28;96882.22;;;20.34;36.79
70411;BME280;57832;46.038;11.398;2023-03-18T11:20:21;96882.97;;;19.95;37.50
70411;BME280;57832;46.038;11.398;2023-03-18T11:22:50;96876.28;;;20.37;36.86
70411;BME280;57832;46.038;11.398;2023-03-18T11:25:21;96873.00;;;20.72;37.15
70411;BME280;57832;46.038;11.398;2023-03-18T11:27:57;96869.34;;;19.96;36.69
70411;BME280;57832;46.038;11.398;2023-03-18T11:30:27;96862.13;;;20.68;37.08
70411;BME280;57832;46.038;11.398;2023-03-18T11:32:57;96856.22;;;20.80;36.33
70411;BME280;57832;46.038;11.398;2023-03-18T11:35:51;96861.00;;;21.36;35.07
70411;BME280;57832;46.038;11.398;2023-03-18T11:41:06;96864.16;;;21.38;36.79
70411;BME280;57832;46.038;11.398;2023-03-18T11:43:36;96863.53;;;21.67;34.22
70411;BME280;57832;46.038;11.398;2023-03-18T11:46:04;96853.13;;;21.48;35.45
70411;BME280;57832;46.038;11.398;2023-03-18T11:48:38;96846.72;;;21.41;35.06
70411;BME280;57832;46.038;11.398;2023-03-18T11:54:11;96851.16;;;20.21;35.61
70411;BME280;57832;46.038;11.398;2023-03-18T11:56:54;96842.75;;;20.77;34.91
70411;BME280;57832;46.038;11.398;2023-03-18T12:08:10;96811.56;;;21.12;33.94
70411;BME280;57832;46.038;11.398;2023-03-18T12:10:44;96797.78;;;21.54;32.82
70411;BME280;57832;46.038;11.398;2023-03-18T12:13:46;96805.44;;;21.64;33.29
70411;BME280;57832;46.038;11.398;2023-03-18T12:19:13;96796.53;;;20.90;33.60
70411;BME280;57832;46.038;11.398;2023-03-18T12:30:01;96783.84;;;21.87;33.39
70411;BME280;57832;46.038;11.398;2023-03-18T12:38:14;96766.22;;;22.03;31.40
70411;BME280;57832;46.038;11.398;2023-03-18T12:47:01;96760.97;;;22.76;31.18
70411;BME280;57832;46.038;11.398;2023-03-18T12:49:44;96767.47;;;21.50;31.56
70411;BME280;57832;46.038;11.398;2023-03-18T12:57:33;96759.69;;;22.22;31.99
70411;BME280;57832;46.038;11.398;2023-03-18T13:03:27;96747.47;;;21.82;31.48
70411;BME280;57832;46.038;11.398;2023-03-18T13:09:20;96739.25;;;22.56;31.31
70411;BME280;57832;46.038;11.398;2023-03-18T13:12:10;96748.47;;;22.37;29.73
70411;BME280;57832;46.038;11.398;2023-03-18T13:14:54;96737.44;;;22.90;30.69
70411;BME280;57832;46.038;11.398;2023-03-18T13:17:34;96729.00;;;23.21;30.92
70411;BME280;57832;46.038;11.398;2023-03-18T13:20:28;96730.56;;;23.01;30.75
70411;BME280;57832;46.038;11.398;2023-03-18T13:23:06;96728.69;;;22.81;31.06
70411;BME280;57832;46.038;11.398;2023-03-18T13:28:35;96728.09;;;22.96;30.07
70411;BME280;57832;46.038;11.398;2023-03-18T13:31:13;96712.63;;;22.38;30.46
70411;BME280;57832;46.038;11.398;2023-03-18T13:44:40;96689.28;;;23.69;29.99
70411;BME280;57832;46.038;11.398;2023-03-18T13:47:15;96689.88;;;23.17;31.46
70411;BME280;57832;46.038;11.398;2023-03-18T13:49:41;96684.16;;;22.64;30.93
70411;BME280;57832;46.038;11.398;2023-03-18T13:52:41;96685.97;;;23.27;29.85
70411;BME280;57832;46.038;11.398;2023-03-18T13:58:42;96677.47;;;22.91;30.27
70411;BME280;57832;46.038;11.398;2023-03-18T14:16:27;96671.84;;;22.71;30.95
70411;BME280;57832;46.038;11.398;2023-03-18T14:22:07;96671.94;;;22.96;29.96
70411;BME280;57832;46.038;11.398;2023-03-18T14:24:33;96667.56;;;22.58;29.92
70411;BME280;57832;46.038;11.398;2023-03-18T14:29:36;96665.97;;;22.57;31.67
70411;BME280;57832;46.038;11.398;2023-03-18T14:40:40;96663.53;;;21.92;32.83
70411;BME280;57832;46.038;11.398;2023-03-18T14:43:13;96665.59;;;21.48;32.54
70411;BME280;57832;46.038;11.398;2023-03-18T14:45:43;96667.41;;;21.26;32.00
70411;BME280;57832;46.038;11.398;2023-03-18T14:48:20;96665.91;;;20.90;33.15
70411;BME280;57832;46.038;11.398;2023-03-18T14:50:50;96666.19;;;20.88;34.45
70411;BME280;57832;46.038;11.398;2023-03-18T14:53:20;96654.78;;;20.79;35.21
70411;BME280;57832;46.038;11.398;2023-03-18T14:55:47;96652.75;;;20.76;34.89
70411;BME280;57832;46.038;11.398;2023-03-18T14:58:15;96653.66;;;20.28;35.07
70411;BME280;57832;46.038;11.398;2023-03-18T15:00:42;96657.94;;;19.88;36.07
70411;BME280;57832;46.038;11.398;2023-03-18T15:03:15;96658.94;;;20.01;36.17
70411;BME280;57832;46.038;11.398;2023-03-18T15:05:44;96652.53;;;19.31;36.48
70411;BME280;57832;46.038;11.398;2023-03-18T15:08:19;96652.09;;;19.78;35.04
70411;BME280;57832;46.038;11.398;2023-03-18T15:10:47;96651.09;;;19.56;37.06